Time,TemperatureF,DewpointF,PressureIn,WindDirection,WindDirectionDegrees,WindSpeedMPH,WindSpeedGustMPH,Humidity,HourlyPrecipIn,Conditions,Clouds,dailyrainin,SolarRadiationWatts/m^2,SoftwareType,DateUTC
2013-02-05 00:06:00,22.0,20.0,29.93,North,350,0.0,-999.0,91,-99.99,,,0.00,0,weatherlink.com 1.10,2013-02-05 05:06:00,
2013-02-05 00:21:00,21.9,20.0,29.94,North,350,0.0,-999.0,92,-99.99,,,0.00,0,weatherlink.com 1.10,2013-02-05 05:21:00,
2013-02-05 00:36:00,21.9,20.0,29.94,North,350,0.0,-999.0,92,-99.99,,,0.00,0,weatherlink.com 1.10,2013-02-05 05:36:00,
2013-02-05 00:51:00,21.9,20.0,29.93,North,350,0.0,-999.0,92,-99.99,,,0.00,0,weatherlink.com 1.10,2013-02-05 05:51:00,
2013-02-05 01:06:00,21.9,20.0,29.93,North,354,0.0,-999.0,92,-99.99,,,0.00,0,weatherlink.com 1.10,2013-02-05 06:06:00,
2013-02-05 01:21:00,22.0,20.0,29.94,WSW,246,1.0,-999.0,92,-99.99,,,0.00,0,weatherlink.com 1.10,2013-02-05 06:21:00,
2013-02-05 01:36:00,21.9,20.0,29.93,WSW,246,0.0,-999.0,92,-99.99,,,0.00,0,weatherlink.com 1.10,2013-02-05 06:36:00,
2013-02-05 01:51:00,21.5,20.0,29.94,WSW,246,0.0,-999.0,92,-99.99,,,0.00,0,weatherlink.com 1.10,2013-02-05 06:51:00,
2013-02-05 02:06:00,21.1,19.0,29.95,WSW,246,0.0,-999.0,92,-99.99,,,0.00,0,weatherlink.com 1.10,2013-02-05 07:06:00,
2013-02-05 02:21:00,20.4,19.0,29.95,WSW,258,0.0,-999.0,93,-99.99,,,0.00,0,weatherlink.com 1.10,2013-02-05 07:21:00,
2013-02-05 02:35:00,19.9,18.0,29.95,WSW,258,0.0,-999.0,93,-99.99,,,0.00,0,weatherlink.com 1.10,2013-02-05 07:35:00,
2013-02-05 02:50:00,19.3,18.0,29.94,WSW,258,0.0,-999.0,93,-99.99,,,0.00,0,weatherlink.com 1.10,2013-02-05 07:50:00,
2013-02-05 03:05:00,18.7,17.0,29.94,WSW,258,0.0,-999.0,93,-99.99,,,0.00,0,weatherlink.com 1.10,2013-02-05 08:05:00,
2013-02-05 03:20:00,18.6,17.0,29.94,WSW,258,0.0,-999.0,93,-99.99,,,0.00,0,weatherlink.com 1.10,2013-02-05 08:20:00,
2013-02-05 03:35:00,18.4,17.0,29.94,WSW,258,0.0,-999.0,94,-99.99,,,0.00,0,weatherlink.com 1.10,2013-02-05 08:35:00,
2013-02-05 03:50:00,18.6,17.0,29.94,WSW,258,0.0,-999.0,94,-99.99,,,0.00,0,weatherlink.com 1.10,2013-02-05 08:50:00,
2013-02-05 04:05:00,18.8,17.0,29.94,WSW,258,0.0,-999.0,94,-99.99,,,0.00,0,weatherlink.com 1.10,2013-02-05 09:05:00,
2013-02-05 04:20:00,18.5,17.0,29.93,WSW,258,0.0,-999.0,94,-99.99,,,0.00,0,weatherlink.com 1.10,2013-02-05 09:20:00,
2013-02-05 04:35:00,18.3,17.0,29.93,WSW,258,0.0,-999.0,93,-99.99,,,0.00,0,weatherlink.com 1.10,2013-02-05 09:35:00,
2013-02-05 04:50:00,18.5,17.0,29.94,WSW,258,0.0,-999.0,93,-99.99,,,0.00,0,weatherlink.com 1.10,2013-02-05 09:50:00,
2013-02-05 05:05:00,18.6,17.0,29.93,WSW,258,0.0,-999.0,93,-99.99,,,0.00,0,weatherlink.com 1.10,2013-02-05 10:05:00,
2013-02-05 05:20:00,18.6,17.0,29.93,South,172,0.0,-999.0,93,-99.99,,,0.00,0,weatherlink.com 1.10,2013-02-05 10:20:00,
2013-02-05 05:35:00,18.5,17.0,29.93,SSE,147,0.0,-999.0,93,-99.99,,,0.00,0,weatherlink.com 1.10,2013-02-05 10:35:00,
2013-02-05 05:50:00,18.2,17.0,29.93,SSE,160,0.0,-999.0,93,-99.99,,,0.00,0,weatherlink.com 1.10,2013-02-05 10:50:00,
2013-02-05 06:05:00,17.9,16.0,29.94,SSE,160,0.0,-999.0,93,-99.99,,,0.00,0,weatherlink.com 1.10,2013-02-05 11:05:00,
2013-02-05 06:20:00,17.6,16.0,29.94,SSE,160,0.0,-999.0,93,-99.99,,,0.00,0,weatherlink.com 1.10,2013-02-05 11:20:00,
2013-02-05 06:35:00,17.1,15.0,29.94,SSE,160,0.0,-999.0,92,-99.99,,,0.00,0,weatherlink.com 1.10,2013-02-05 11:35:00,
2013-02-05 06:50:00,16.5,15.0,29.94,SSE,160,0.0,-999.0,92,-99.99,,,0.00,0,weatherlink.com 1.10,2013-02-05 11:50:00,
2013-02-05 07:05:00,16.5,15.0,29.93,SSE,160,0.0,-999.0,93,-99.99,,,0.00,0,weatherlink.com 1.10,2013-02-05 12:05:00,
2013-02-05 07:20:00,16.6,15.0,29.94,SSE,160,0.0,-999.0,93,-99.99,,,0.00,0,weatherlink.com 1.10,2013-02-05 12:20:00,
2013-02-05 07:35:00,16.0,14.0,29.95,SSE,160,0.0,-999.0,93,-99.99,,,0.00,0,weatherlink.com 1.10,2013-02-05 12:35:00,
2013-02-05 07:50:00,15.6,14.0,29.95,SSE,160,0.0,-999.0,92,-99.99,,,0.00,0,weatherlink.com 1.10,2013-02-05 12:50:00,
2013-02-05 08:05:00,14.5,13.0,29.95,SE,141,0.0,-999.0,92,-99.99,,,0.00,14,weatherlink.com 1.10,2013-02-05 13:05:00,
2013-02-05 08:20:00,14.7,13.0,29.95,SE,141,0.0,-999.0,92,-99.99,,,0.00,58,weatherlink.com 1.10,2013-02-05 13:20:00,
2013-02-05 08:35:00,15.6,14.0,29.95,SE,141,0.0,-999.0,93,-99.99,,,0.00,33,weatherlink.com 1.10,2013-02-05 13:35:00,
2013-02-05 08:50:00,15.9,14.0,29.96,SE,141,0.0,-999.0,93,-99.99,,,0.00,88,weatherlink.com 1.10,2013-02-05 13:50:00,
2013-02-05 09:05:00,16.9,16.0,29.96,SE,141,0.0,-999.0,94,-99.99,,,0.00,211,weatherlink.com 1.10,2013-02-05 14:05:00,
2013-02-05 09:20:00,18.1,17.0,29.96,SE,141,0.0,-999.0,94,-99.99,,,0.00,135,weatherlink.com 1.10,2013-02-05 14:20:00,
2013-02-05 09:35:00,19.3,18.0,29.96,SE,141,0.0,-999.0,94,-99.99,,,0.00,139,weatherlink.com 1.10,2013-02-05 14:35:00,
2013-02-05 09:50:00,20.2,19.0,29.95,SE,141,0.0,-999.0,94,-99.99,,,0.00,167,weatherlink.com 1.10,2013-02-05 14:50:00,
2013-02-05 10:05:00,21.2,20.0,29.95,South,181,3.0,-999.0,94,-99.99,,,0.00,162,weatherlink.com 1.10,2013-02-05 15:05:00,
2013-02-05 10:20:00,21.7,20.0,29.96,SSW,192,5.0,-999.0,94,-99.99,,,0.00,183,weatherlink.com 1.10,2013-02-05 15:20:00,
2013-02-05 10:35:00,23.5,22.0,29.94,South,177,9.0,-999.0,95,-99.99,,,0.00,204,weatherlink.com 1.10,2013-02-05 15:35:00,
2013-02-05 10:50:00,24.0,23.0,29.94,South,177,11.0,-999.0,94,-99.99,,,0.00,188,weatherlink.com 1.10,2013-02-05 15:50:00,
2013-02-05 11:05:00,24.5,23.0,29.93,South,178,8.0,-999.0,93,-99.99,,,0.00,165,weatherlink.com 1.10,2013-02-05 16:05:00,
2013-02-05 11:20:00,25.2,23.0,29.92,South,171,8.0,-999.0,90,-99.99,,,0.00,343,weatherlink.com 1.10,2013-02-05 16:20:00,
2013-02-05 11:35:00,26.0,23.0,29.91,South,176,6.0,-999.0,87,-99.99,,,0.00,367,weatherlink.com 1.10,2013-02-05 16:35:00,
2013-02-05 11:50:00,26.7,23.0,29.91,SSE,161,7.0,-999.0,85,-99.99,,,0.00,424,weatherlink.com 1.10,2013-02-05 16:50:00,
2013-02-05 12:05:00,26.9,23.0,29.90,South,177,9.0,-999.0,84,-99.99,,,0.00,297,weatherlink.com 1.10,2013-02-05 17:05:00,
2013-02-05 12:20:00,28.2,23.0,29.89,South,191,9.0,-999.0,82,-99.99,,,0.00,478,weatherlink.com 1.10,2013-02-05 17:20:00,
2013-02-05 12:35:00,28.6,23.0,29.89,South,185,12.0,-999.0,79,-99.99,,,0.00,504,weatherlink.com 1.10,2013-02-05 17:35:00,
2013-02-05 12:50:00,28.5,23.0,29.89,South,189,11.0,-999.0,81,-99.99,,,0.00,374,weatherlink.com 1.10,2013-02-05 17:50:00,
2013-02-05 13:05:00,28.9,24.0,29.88,South,191,11.0,-999.0,82,-99.99,,,0.00,406,weatherlink.com 1.10,2013-02-05 18:05:00,
2013-02-05 13:20:00,29.1,24.0,29.88,South,187,16.0,-999.0,80,-99.99,,,0.00,366,weatherlink.com 1.10,2013-02-05 18:20:00,
2013-02-05 13:35:00,29.4,24.0,29.86,South,172,13.0,-999.0,80,-99.99,,,0.00,417,weatherlink.com 1.10,2013-02-05 18:35:00,
2013-02-05 13:50:00,29.7,24.0,29.85,South,183,12.0,-999.0,79,-99.99,,,0.00,350,weatherlink.com 1.10,2013-02-05 18:50:00,
2013-02-05 14:05:00,30.1,24.0,29.85,SSW,197,12.0,-999.0,78,-99.99,,,0.00,320,weatherlink.com 1.10,2013-02-05 19:05:00,
2013-02-05 14:20:00,30.2,24.0,29.84,South,179,13.0,-999.0,78,-99.99,,,0.00,258,weatherlink.com 1.10,2013-02-05 19:20:00,
2013-02-05 14:35:00,30.5,25.0,29.83,South,170,13.0,-999.0,80,-99.99,,,0.00,250,weatherlink.com 1.10,2013-02-05 19:35:00,
2013-02-05 14:50:00,30.8,25.0,29.83,SSW,202,12.0,-999.0,79,-99.99,,,0.00,230,weatherlink.com 1.10,2013-02-05 19:50:00,
2013-02-05 15:05:00,31.0,25.0,29.83,South,189,12.0,-999.0,79,-99.99,,,0.00,186,weatherlink.com 1.10,2013-02-05 20:05:00,
2013-02-05 15:20:00,31.3,26.0,29.83,SSW,196,8.0,-999.0,79,-99.99,,,0.00,188,weatherlink.com 1.10,2013-02-05 20:20:00,
2013-02-05 15:35:00,32.0,26.0,29.84,SSW,199,12.0,-999.0,77,-99.99,,,0.00,229,weatherlink.com 1.10,2013-02-05 20:35:00,
2013-02-05 15:50:00,32.6,26.0,29.84,SW,217,18.0,-999.0,75,-99.99,,,0.00,190,weatherlink.com 1.10,2013-02-05 20:50:00,
2013-02-05 16:05:00,32.5,26.0,29.84,SW,216,9.0,-999.0,77,-99.99,,,0.00,123,weatherlink.com 1.10,2013-02-05 21:05:00,
2013-02-05 16:20:00,32.7,26.0,29.85,SW,231,9.0,-999.0,77,-99.99,,,0.00,95,weatherlink.com 1.10,2013-02-05 21:20:00,
2013-02-05 16:35:00,32.6,26.0,29.86,WSW,253,7.0,-999.0,78,-99.99,,,0.00,54,weatherlink.com 1.10,2013-02-05 21:35:00,
2013-02-05 16:50:00,32.3,27.0,29.86,SW,219,5.0,-999.0,80,-99.99,,,0.00,37,weatherlink.com 1.10,2013-02-05 21:50:00,
2013-02-05 17:05:00,31.6,27.0,29.87,WSW,247,4.0,-999.0,84,-99.99,,,0.00,26,weatherlink.com 1.10,2013-02-05 22:05:00,
2013-02-05 17:20:00,31.0,28.0,29.87,SW,235,5.0,-999.0,88,-99.99,,,0.00,21,weatherlink.com 1.10,2013-02-05 22:20:00,
2013-02-05 17:35:00,30.9,28.0,29.88,West,265,4.0,-999.0,89,-99.99,,,0.00,11,weatherlink.com 1.10,2013-02-05 22:35:00,
2013-02-05 17:51:00,30.6,29.0,29.89,WSW,250,2.0,-999.0,92,-99.99,,,0.00,7,weatherlink.com 1.10,2013-02-05 22:51:00,
2013-02-05 18:06:00,30.9,29.0,29.89,WSW,245,1.0,-999.0,92,-99.99,,,0.00,0,weatherlink.com 1.10,2013-02-05 23:06:00,
2013-02-05 18:20:00,31.5,29.0,29.89,SW,230,4.0,-999.0,91,-99.99,,,0.00,0,weatherlink.com 1.10,2013-02-05 23:20:00,
2013-02-05 18:36:00,31.9,29.0,29.90,WSW,250,4.0,-999.0,90,-99.99,,,0.00,0,weatherlink.com 1.10,2013-02-05 23:36:00,
2013-02-05 18:50:00,32.5,30.0,29.90,West,274,9.0,-999.0,90,-99.99,,,0.00,0,weatherlink.com 1.10,2013-02-05 23:50:00,
2013-02-05 19:05:00,32.9,30.0,29.91,WNW,286,6.0,-999.0,89,-99.99,,,0.00,0,weatherlink.com 1.10,2013-02-06 00:05:00,
2013-02-05 19:21:00,32.8,30.0,29.91,WNW,287,9.0,-999.0,89,-99.99,,,0.00,0,weatherlink.com 1.10,2013-02-06 00:21:00,
2013-02-05 19:35:00,32.7,30.0,29.92,WNW,285,6.0,-999.0,88,-99.99,,,0.00,0,weatherlink.com 1.10,2013-02-06 00:35:00,
2013-02-05 19:50:00,32.6,30.0,29.93,WNW,299,5.0,-999.0,88,-99.99,,,0.00,0,weatherlink.com 1.10,2013-02-06 00:50:00,
2013-02-05 20:05:00,32.6,30.0,29.93,WNW,284,3.0,-999.0,88,-99.99,,,0.00,0,weatherlink.com 1.10,2013-02-06 01:05:00,
2013-02-05 20:20:00,32.6,30.0,29.94,WSW,244,8.0,-999.0,88,-99.99,,,0.00,0,weatherlink.com 1.10,2013-02-06 01:20:00,
2013-02-05 20:36:00,32.5,29.0,29.95,West,277,5.0,-999.0,88,-99.99,,,0.00,0,weatherlink.com 1.10,2013-02-06 01:36:00,
2013-02-05 20:51:00,32.5,29.0,29.96,WNW,293,9.0,-999.0,87,-99.99,,,0.00,0,weatherlink.com 1.10,2013-02-06 01:51:00,
2013-02-05 21:05:00,32.4,29.0,29.96,West,268,5.0,-999.0,87,-99.99,,,0.00,0,weatherlink.com 1.10,2013-02-06 02:05:00,
2013-02-05 21:20:00,32.2,29.0,29.97,WSW,240,10.0,-999.0,87,-99.99,,,0.00,0,weatherlink.com 1.10,2013-02-06 02:20:00,
2013-02-05 21:35:00,32.2,29.0,29.98,NNW,335,4.0,-999.0,87,-99.99,,,0.00,0,weatherlink.com 1.10,2013-02-06 02:35:00,
2013-02-05 21:51:00,32.1,29.0,29.98,WNW,288,7.0,-999.0,88,-99.99,,,0.00,0,weatherlink.com 1.10,2013-02-06 02:51:00,
2013-02-05 22:05:00,31.9,29.0,29.99,NW,312,8.0,-999.0,87,-99.99,,,0.00,0,weatherlink.com 1.10,2013-02-06 03:05:00,
2013-02-05 22:20:00,31.6,28.0,30.00,NW,318,11.0,-999.0,86,-99.99,,,0.00,0,weatherlink.com 1.10,2013-02-06 03:20:00,
2013-02-05 22:36:00,31.4,28.0,30.00,NW,316,2.0,-999.0,87,-99.99,,,0.00,0,weatherlink.com 1.10,2013-02-06 03:36:00,
2013-02-05 22:51:00,31.2,28.0,30.01,NW,311,5.0,-999.0,88,-99.99,,,0.00,0,weatherlink.com 1.10,2013-02-06 03:51:00,
2013-02-05 23:05:00,30.9,28.0,30.02,NNW,337,6.0,-999.0,88,-99.99,,,0.00,0,weatherlink.com 1.10,2013-02-06 04:05:00,
2013-02-05 23:21:00,30.5,27.0,30.03,NW,307,7.0,-999.0,88,-99.99,,,0.00,0,weatherlink.com 1.10,2013-02-06 04:21:00,
2013-02-05 23:35:00,30.3,27.0,30.03,NW,316,9.0,-999.0,87,-99.99,,,0.00,0,weatherlink.com 1.10,2013-02-06 04:35:00,
2013-02-05 23:51:00,30.1,26.0,30.04,NW,315,3.0,-999.0,86,-99.99,,,0.00,0,weatherlink.com 1.10,2013-02-06 04:51:00,